Time;durP1;ratioP1;P1;durP2;ratioP2;P2;SDS_P1;SDS_P2;PMS_P1;PMS_P2;Temp;Humidity;BMP_temperature;BMP_pressure;BME280_temperature;BME280_humidity;BME280_pressure;Samples;Min_cycle;Max_cycle;Signal;HPM_P1;HPM_P2
2022/04/28 00:02:12;;;;;;;57.28;27.55;;;;;;;;;;6244101;28;20108;-81
2022/04/28 00:05:13;;;;;;;73.53;31.48;;;;;;;;;;6242214;28;20435;-81
2022/04/28 00:08:13;;;;;;;87.30;36.92;;;;;;;;;;6246376;28;20020;-81
2022/04/28 00:11:13;;;;;;;88.45;38.15;;;;;;;;;;6264663;28;20041;-81
2022/04/28 00:14:14;;;;;;;78.10;34.80;;;;;;;;;;6268381;28;20012;-81
2022/04/28 00:17:14;;;;;;;78.28;37.65;;;;;;;;;;6256489;28;20024;-81
2022/04/28 00:20:14;;;;;;;102.03;37.33;;;;;;;;;;6267424;28;20470;-81
2022/04/28 00:23:15;;;;;;;67.05;32.10;;;;;;;;;;6250096;28;20241;-81
2022/04/28 00:26:15;;;;;;;48.95;24.48;;;;;;;;;;6249702;28;20028;-81
2022/04/28 00:29:15;;;;;;;44.85;23.73;;;;;;;;;;6249660;28;20021;-81
2022/04/28 00:32:15;;;;;;;41.75;20.23;;;;;;;;;;6249973;28;20021;-81
2022/04/28 00:35:16;;;;;;;41.63;22.48;;;;;;;;;;6249827;28;20487;-81
2022/04/28 00:38:16;;;;;;;44.55;21.60;;;;;;;;;;6267886;28;20066;-80
2022/04/28 00:41:16;;;;;;;39.58;17.92;;;;;;;;;;6267608;28;20115;-81
2022/04/28 00:44:16;;;;;;;34.00;17.42;;;;;;;;;;6267873;28;20013;-81
2022/04/28 00:47:17;;;;;;;34.50;16.48;;;;;;;;;;6249993;28;20384;-81
2022/04/28 00:53:49;;;;;;;39.17;19.38;;;;;;;;;;6272681;28;20029;-81
2022/04/28 00:56:49;;;;;;;32.88;19.48;;;;;;;;;;6272154;28;20390;-81
2022/04/28 00:59:50;;;;;;;36.30;18.73;;;;;;;;;;6253289;28;20061;-81
2022/04/28 01:02:51;;;;;;;40.33;21.40;;;;;;;;;;6272717;28;20366;-81
2022/04/28 01:05:51;;;;;;;34.85;19.05;;;;;;;;;;6271988;28;20039;-81
2022/04/28 01:08:51;;;;;;;33.42;18.08;;;;;;;;;;6254156;28;20051;-81
2022/04/28 01:11:52;;;;;;;31.30;16.05;;;;;;;;;;6252122;28;20483;-81
2022/04/28 01:14:53;;;;;;;31.35;16.42;;;;;;;;;;6271843;28;20094;-81
2022/04/28 01:17:53;;;;;;;33.45;16.65;;;;;;;;;;6266113;28;20021;-81
2022/04/28 01:20:54;;;;;;;25.87;15.07;;;;;;;;;;6253158;28;20443;-81
2022/04/28 01:23:55;;;;;;;28.52;15.43;;;;;;;;;;6271461;28;20659;-81
2022/04/28 01:26:56;;;;;;;34.60;16.23;;;;;;;;;;6271517;28;20021;-81
2022/04/28 01:29:56;;;;;;;29.65;15.90;;;;;;;;;;6270725;28;20024;-81
2022/04/28 01:32:57;;;;;;;36.90;16.37;;;;;;;;;;6271722;28;20017;-81
2022/04/28 01:35:58;;;;;;;31.17;15.53;;;;;;;;;;6253358;28;20263;-81
2022/04/28 01:38:58;;;;;;;29.88;15.77;;;;;;;;;;6271280;28;20043;-81
2022/04/28 01:41:58;;;;;;;29.70;14.07;;;;;;;;;;6251923;28;20063;-81
2022/04/28 01:44:59;;;;;;;38.40;18.00;;;;;;;;;;6234519;28;20391;-81
2022/04/28 01:47:59;;;;;;;27.85;14.93;;;;;;;;;;6270052;28;20290;-81
2022/04/28 01:57:39;;;;;;;30.20;14.43;;;;;;;;;;6270579;28;20025;-81
2022/04/28 02:00:39;;;;;;;27.55;13.63;;;;;;;;;;6270355;28;20028;-81
2022/04/28 02:03:39;;;;;;;30.55;15.43;;;;;;;;;;6270383;28;20020;-81
2022/04/28 02:06:41;;;;;;;30.13;15.73;;;;;;;;;;6270720;28;20032;-81
2022/04/28 02:09:41;;;;;;;29.20;14.30;;;;;;;;;;6270097;28;20311;-81
2022/04/28 02:12:41;;;;;;;30.55;15.10;;;;;;;;;;6268974;28;20445;-81
2022/04/28 02:15:45;;;;;;;28.73;13.50;;;;;;;;;;6263852;28;20013;-81
2022/04/28 02:18:45;;;;;;;30.98;16.15;;;;;;;;;;6269995;28;20013;-81
2022/04/28 02:21:45;;;;;;;29.27;13.98;;;;;;;;;;6251750;28;20044;-81
2022/04/28 02:24:47;;;;;;;28.93;15.57;;;;;;;;;;6248309;28;20039;-81
2022/04/28 02:27:47;;;;;;;29.25;15.65;;;;;;;;;;6269583;28;20278;-81
2022/04/28 02:30:48;;;;;;;31.13;15.87;;;;;;;;;;6269674;28;20017;-81
2022/04/28 02:33:48;;;;;;;25.13;13.70;;;;;;;;;;6269031;28;20259;-81
2022/04/28 02:36:48;;;;;;;33.75;15.98;;;;;;;;;;6269865;28;20259;-81
2022/04/28 02:39:48;;;;;;;35.83;15.27;;;;;;;;;;6269676;28;20094;-81
2022/04/28 02:42:49;;;;;;;29.17;14.97;;;;;;;;;;6270269;28;20090;-81
2022/04/28 02:45:49;;;;;;;36.40;16.95;;;;;;;;;;6269593;28;20303;-81
2022/04/28 02:48:49;;;;;;;26.92;13.45;;;;;;;;;;6269762;28;20028;-81
2022/04/28 02:51:49;;;;;;;31.10;15.43;;;;;;;;;;6269106;28;20049;-81
2022/04/28 02:54:50;;;;;;;35.35;17.02;;;;;;;;;;6269621;28;20260;-81
2022/04/28 02:57:50;;;;;;;34.17;17.17;;;;;;;;;;6251512;28;20031;-81
2022/04/28 03:00:50;;;;;;;33.75;18.15;;;;;;;;;;6251033;28;20031;-81
2022/04/28 03:03:51;;;;;;;27.83;14.07;;;;;;;;;;6269270;28;20021;-81
2022/04/28 03:10:59;;;;;;;31.83;15.18;;;;;;;;;;6169742;28;20050;-81
2022/04/28 03:13:54;;;;;;;32.67;16.15;;;;;;;;;;6268375;28;20112;-81
2022/04/28 03:16:54;;;;;;;30.23;16.00;;;;;;;;;;6262683;28;20082;-81
2022/04/28 03:19:54;;;;;;;33.88;16.13;;;;;;;;;;6250583;28;20039;-81
2022/04/28 03:22:55;;;;;;;32.17;16.63;;;;;;;;;;6254341;28;20399;-82
2022/04/28 03:25:55;;;;;;;23.65;14.23;;;;;;;;;;6266824;28;20025;-81
2022/04/28 03:28:55;;;;;;;30.02;13.02;;;;;;;;;;6268595;28;20021;-82
2022/04/28 03:31:56;;;;;;;29.15;15.57;;;;;;;;;;6268125;28;20494;-81
2022/04/28 03:34:56;;;;;;;28.95;15.27;;;;;;;;;;6268016;28;20017;-81
2022/04/28 03:37:59;;;;;;;32.83;15.90;;;;;;;;;;6250490;28;20048;-81
2022/04/28 03:40:59;;;;;;;35.50;15.77;;;;;;;;;;6250574;28;20754;-81
2022/04/28 03:43:59;;;;;;;26.00;14.53;;;;;;;;;;6249998;28;20022;-81
2022/04/28 03:46:59;;;;;;;36.78;16.98;;;;;;;;;;6243555;28;20383;-81
2022/04/28 03:50:00;;;;;;;27.52;15.15;;;;;;;;;;6243171;28;20018;-82
2022/04/28 03:53:00;;;;;;;30.80;15.25;;;;;;;;;;6225761;28;20018;-81
2022/04/28 03:56:00;;;;;;;27.77;15.15;;;;;;;;;;6268162;28;20016;-81
2022/04/28 03:59:02;;;;;;;31.27;15.85;;;;;;;;;;6268821;28;20017;-81
2022/04/28 04:02:02;;;;;;;31.63;15.57;;;;;;;;;;6268140;28;20025;-81
2022/04/28 04:05:02;;;;;;;21.98;13.02;;;;;;;;;;6267944;28;20036;-81
2022/04/28 04:08:03;;;;;;;27.38;13.63;;;;;;;;;;6249818;28;20017;-81
2022/04/28 04:11:03;;;;;;;26.63;13.13;;;;;;;;;;6266365;28;20094;-81
2022/04/28 04:14:03;;;;;;;30.60;12.90;;;;;;;;;;6250150;28;20025;-81
2022/04/28 04:17:04;;;;;;;31.67;14.68;;;;;;;;;;6261622;28;20389;-80
2022/04/28 04:20:05;;;;;;;31.88;14.10;;;;;;;;;;6267851;28;20021;-81
2022/04/28 04:23:05;;;;;;;28.65;14.70;;;;;;;;;;6268707;28;20380;-81
2022/04/28 04:26:06;;;;;;;29.55;16.25;;;;;;;;;;6272232;28;20492;-81
2022/04/28 04:29:06;;;;;;;22.98;12.82;;;;;;;;;;6272995;28;20040;-81
2022/04/28 04:32:20;;;;;;;29.33;13.77;;;;;;;;;;6272151;28;20476;-81
2022/04/28 04:35:23;;;;;;;30.88;16.70;;;;;;;;;;6272755;28;20459;-81
2022/04/28 04:38:24;;;;;;;26.98;15.77;;;;;;;;;;6254525;28;20443;-81
2022/04/28 04:41:24;;;;;;;31.80;18.55;;;;;;;;;;6254324;28;20021;-81
2022/04/28 04:44:24;;;;;;;29.17;15.90;;;;;;;;;;6250982;28;20112;-81
2022/04/28 04:47:24;;;;;;;34.40;17.23;;;;;;;;;;6265605;28;20094;-81
2022/04/28 04:50:25;;;;;;;35.00;17.75;;;;;;;;;;6253562;28;20302;-80
2022/04/28 04:53:25;;;;;;;37.63;19.50;;;;;;;;;;6253191;28;20043;-81
2022/04/28 04:56:25;;;;;;;37.50;20.05;;;;;;;;;;6272647;28;20025;-81
2022/04/28 04:59:25;;;;;;;35.03;19.47;;;;;;;;;;6270700;28;21513;-81
2022/04/28 05:02:25;;;;;;;35.33;20.50;;;;;;;;;;6270480;28;20267;-80
2022/04/28 05:05:26;;;;;;;28.50;15.80;;;;;;;;;;6271566;28;20271;-80
2022/04/28 05:08:26;;;;;;;28.90;15.43;;;;;;;;;;6270533;28;20291;-80
2022/04/28 05:11:26;;;;;;;40.23;22.20;;;;;;;;;;6257191;28;20307;-80
2022/04/28 05:14:26;;;;;;;41.80;22.45;;;;;;;;;;6250965;28;20374;-80
2022/04/28 05:17:27;;;;;;;41.43;20.37;;;;;;;;;;6271648;28;20037;-80
2022/04/28 05:20:27;;;;;;;35.28;19.50;;;;;;;;;;6253473;28;20279;-80
2022/04/28 05:23:27;;;;;;;45.30;24.30;;;;;;;;;;6271332;28;20021;-80
2022/04/28 05:26:27;;;;;;;36.43;21.63;;;;;;;;;;6253098;28;20032;-80
2022/04/28 05:29:27;;;;;;;35.30;20.13;;;;;;;;;;6252440;28;20047;-80
2022/04/28 05:32:28;;;;;;;34.83;20.13;;;;;;;;;;6252213;28;20051;-80
2022/04/28 05:35:28;;;;;;;34.10;19.57;;;;;;;;;;6249981;28;20029;-80
2022/04/28 05:38:29;;;;;;;36.17;20.83;;;;;;;;;;6241370;28;20161;-80
2022/04/28 05:41:30;;;;;;;30.80;16.73;;;;;;;;;;6269009;28;20021;-80
2022/04/28 05:47:48;;;;;;;34.45;17.83;;;;;;;;;;6268811;28;20438;-80
2022/04/28 05:50:49;;;;;;;32.13;19.57;;;;;;;;;;6269483;28;20158;-80
2022/04/28 05:53:49;;;;;;;25.03;15.80;;;;;;;;;;6251742;28;20536;-80
2022/04/28 05:56:49;;;;;;;26.70;16.10;;;;;;;;;;6252755;28;20013;-80
2022/04/28 05:59:50;;;;;;;29.93;19.10;;;;;;;;;;6270807;28;20021;-80
2022/04/28 06:02:50;;;;;;;28.00;18.03;;;;;;;;;;6270398;28;20099;-80
2022/04/28 06:05:50;;;;;;;28.77;17.43;;;;;;;;;;6268912;28;20396;-80
2022/04/28 06:08:50;;;;;;;34.77;19.70;;;;;;;;;;6269083;28;20043;-80
2022/04/28 06:11:51;;;;;;;29.47;19.17;;;;;;;;;;6268916;28;20052;-80
2022/04/28 06:14:53;;;;;;;33.17;20.50;;;;;;;;;;6252145;28;20472;-79
2022/04/28 06:17:53;;;;;;;37.55;19.25;;;;;;;;;;6250575;28;20272;-80
2022/04/28 06:20:54;;;;;;;35.17;17.93;;;;;;;;;;6269718;28;20507;-80
2022/04/28 06:23:54;;;;;;;28.57;18.17;;;;;;;;;;6252196;28;20025;-80
2022/04/28 06:26:54;;;;;;;27.43;18.90;;;;;;;;;;6246341;28;20113;-80
2022/04/28 06:29:54;;;;;;;28.13;17.13;;;;;;;;;;6262434;28;20033;-80
2022/04/28 06:32:54;;;;;;;25.73;17.13;;;;;;;;;;6267517;28;20013;-80
2022/04/28 06:35:55;;;;;;;33.17;19.03;;;;;;;;;;6251045;28;20117;-80
2022/04/28 06:38:55;;;;;;;29.10;17.60;;;;;;;;;;6267729;28;20029;-80
2022/04/28 06:41:56;;;;;;;24.30;15.40;;;;;;;;;;6250616;28;20029;-80
2022/04/28 06:44:56;;;;;;;;;;;;;;;;;;6269919;28;20032;-80
2022/04/28 06:47:56;;;;;;;23.83;14.73;;;;;;;;;;6267036;28;19923;-80
2022/04/28 06:50:56;;;;;;;16.87;10.87;;;;;;;;;;6250374;28;20103;-80
2022/04/28 06:53:58;;;;;;;;;;;;;;;;;;6251799;28;20267;-80
2022/04/28 06:56:58;;;;;;;14.60;9.27;;;;;;;;;;6269816;28;19908;-80
2022/04/28 06:59:59;;;;;;;;;;;;;;;;;;6269726;28;20384;-80
2022/04/28 07:02:59;;;;;;;8.00;4.75;;;;;;;;;;6268034;28;19951;-80
2022/04/28 07:05:59;;;;;;;;;;;;;;;;;;6251616;28;20053;-80
2022/04/28 07:08:59;;;;;;;12.23;5.32;;;;;;;;;;6268915;28;20374;-80
2022/04/28 07:11:59;;;;;;;;;;;;;;;;;;6267827;28;20472;-80
2022/04/28 07:14:59;;;;;;;8.00;4.05;;;;;;;;;;6250086;28;19905;-80
2022/04/28 07:18:01;;;;;;;;;;;;;;;;;;6264848;28;20035;-80
2022/04/28 07:21:02;;;;;;;13.00;5.75;;;;;;;;;;6269558;28;19954;-80
2022/04/28 07:24:02;;;;;;;;;;;;;;;;;;6251805;28;20120;-80
2022/04/28 07:27:03;;;;;;;8.57;6.13;;;;;;;;;;6268053;28;19997;-80
2022/04/28 07:30:03;;;;;;;;;;;;;;;;;;6269144;28;20472;-80
2022/04/28 07:33:03;;;;;;;10.35;4.30;;;;;;;;;;6267861;28;19909;-80
2022/04/28 07:36:04;;;;;;;;;;;;;;;;;;6269274;28;20399;-80
2022/04/28 07:39:04;;;;;;;9.80;5.23;;;;;;;;;;6250678;28;19909;-80
2022/04/28 07:42:04;;;;;;;14.60;6.57;;;;;;;;;;6247902;28;20031;-80
2022/04/28 07:45:05;;;;;;;8.67;5.40;;;;;;;;;;6236737;28;20087;-80
2022/04/28 07:48:05;;;;;;;;;;;;;;;;;;6254509;28;20067;-80
2022/04/28 07:51:05;;;;;;;7.70;4.43;;;;;;;;;;6266621;28;19908;-80
2022/04/28 07:54:05;;;;;;;6.80;4.53;;;;;;;;;;6243261;28;20429;-80
2022/04/28 07:57:06;;;;;;;7.70;4.50;;;;;;;;;;6267061;28;20017;-80
2022/04/28 08:00:07;;;;;;;10.07;4.93;;;;;;;;;;6265690;28;20025;-80
2022/04/28 08:03:07;;;;;;;;;;;;;;;;;;6250648;28;20032;-80
2022/04/28 08:06:08;;;;;;;8.13;5.40;;;;;;;;;;6268092;28;20004;-80
2022/04/28 08:09:08;;;;;;;11.38;5.20;;;;;;;;;;6268389;28;20075;-80
2022/04/28 08:12:09;;;;;;;11.67;4.87;;;;;;;;;;6264905;28;20017;-80
2022/04/28 08:15:10;;;;;;;8.30;5.40;;;;;;;;;;6266383;28;20013;-80
2022/04/28 08:18:10;;;;;;;8.25;4.85;;;;;;;;;;6266510;28;20329;-80
2022/04/28 08:21:10;;;;;;;9.40;5.00;;;;;;;;;;6266800;28;20059;-79
2022/04/28 08:24:11;;;;;;;7.90;5.60;;;;;;;;;;6248103;28;20024;-79
2022/04/28 08:27:11;;;;;;;10.40;5.13;;;;;;;;;;6246801;28;20538;-80
2022/04/28 08:30:11;;;;;;;8.47;5.13;;;;;;;;;;6264693;28;20111;-79
2022/04/28 08:33:11;;;;;;;8.07;5.20;;;;;;;;;;6247684;28;20116;-79
2022/04/28 08:36:13;;;;;;;7.97;5.17;;;;;;;;;;6264887;28;20033;-79
2022/04/28 08:39:13;;;;;;;7.97;4.97;;;;;;;;;;6266314;28;20033;-79
2022/04/28 08:42:15;;;;;;;11.10;5.40;;;;;;;;;;6266152;28;20028;-79
2022/04/28 08:45:21;;;;;;;8.50;5.38;;;;;;;;;;6248661;28;20029;-79
2022/04/28 08:48:22;;;;;;;8.95;4.13;;;;;;;;;;6265824;28;20024;-80
2022/04/28 08:51:26;;;;;;;8.20;4.83;;;;;;;;;;6267317;28;20107;-79
2022/04/28 08:54:27;;;;;;;7.07;4.22;;;;;;;;;;6265054;28;20500;-79
2022/04/28 08:57:27;;;;;;;;;;;;;;;;;;6268425;28;20036;-79
2022/04/28 09:00:28;;;;;;;10.88;4.80;;;;;;;;;;6248404;28;19913;-79
2022/04/28 09:03:28;;;;;;;11.20;4.97;;;;;;;;;;6264750;28;20020;-79
2022/04/28 09:06:30;;;;;;;12.63;6.43;;;;;;;;;;6248981;28;20495;-79
2022/04/28 09:09:30;;;;;;;7.63;4.80;;;;;;;;;;6269651;28;20045;-80
2022/04/28 09:12:30;;;;;;;8.60;4.53;;;;;;;;;;6269966;28;20032;-80
2022/04/28 09:15:30;;;;;;;8.43;5.90;;;;;;;;;;6274593;28;20029;-79
2022/04/28 09:18:31;;;;;;;8.40;4.93;;;;;;;;;;6235021;28;20040;-79
2022/04/28 09:21:35;;;;;;;10.53;5.30;;;;;;;;;;6271814;28;20020;-79
2022/04/28 09:24:37;;;;;;;8.80;5.22;;;;;;;;;;6267177;28;20028;-79
2022/04/28 09:27:39;;;;;;;7.63;4.80;;;;;;;;;;6267684;28;20207;-79
2022/04/28 09:30:39;;;;;;;;;;;;;;;;;;6262850;28;20430;-79
2022/04/28 09:33:40;;;;;;;9.77;4.28;;;;;;;;;;6268945;28;20288;-79
2022/04/28 09:36:41;;;;;;;8.15;4.13;;;;;;;;;;6261413;28;20383;-79
2022/04/28 09:43:02;;;;;;;10.18;5.15;;;;;;;;;;6267137;28;19909;-80
2022/04/28 09:46:04;;;;;;;7.50;4.50;;;;;;;;;;6268031;28;20086;-79
2022/04/28 09:49:04;;;;;;;7.50;4.75;;;;;;;;;;6268619;28;20021;-79
2022/04/28 09:52:04;;;;;;;11.63;4.77;;;;;;;;;;6265979;28;20361;-79
2022/04/28 09:55:05;;;;;;;7.43;4.73;;;;;;;;;;6268157;28;20027;-79
2022/04/28 09:58:09;;;;;;;7.13;4.73;;;;;;;;;;6262227;28;20032;-79
2022/04/28 10:01:09;;;;;;;8.23;5.20;;;;;;;;;;6270951;28;20036;-79
2022/04/28 10:04:10;;;;;;;9.83;4.23;;;;;;;;;;6263461;28;20029;-80
2022/04/28 10:07:13;;;;;;;7.23;3.87;;;;;;;;;;6269110;28;20026;-79
2022/04/28 10:10:13;;;;;;;5.75;3.33;;;;;;;;;;6268897;28;20056;-80
2022/04/28 10:13:14;;;;;;;10.80;4.23;;;;;;;;;;6269921;28;20029;-79
2022/04/28 10:16:15;;;;;;;13.20;6.30;;;;;;;;;;6269879;28;20510;-80
2022/04/28 10:19:19;;;;;;;9.25;5.22;;;;;;;;;;6268846;28;20407;-79
2022/04/28 10:22:22;;;;;;;14.75;6.13;;;;;;;;;;6269978;28;20074;-80
2022/04/28 10:35:33;;;;;;;13.65;4.47;;;;;;;;;;6267239;28;20345;-79
2022/04/28 10:38:38;;;;;;;9.45;4.57;;;;;;;;;;6266489;28;20591;-79
2022/04/28 10:41:39;;;;;;;8.88;4.28;;;;;;;;;;6267626;28;20066;-79
2022/04/28 10:44:46;;;;;;;6.27;4.03;;;;;;;;;;6268488;28;20384;-79
2022/04/28 10:47:47;;;;;;;6.03;3.17;;;;;;;;;;6267937;28;20013;-79
2022/04/28 10:51:00;;;;;;;6.67;4.10;;;;;;;;;;6269580;28;20472;-79
2022/04/28 10:54:03;;;;;;;9.18;3.65;;;;;;;;;;6249165;28;20016;-79
2022/04/28 10:57:06;;;;;;;8.00;3.78;;;;;;;;;;6268336;28;20494;-79
2022/04/28 11:00:06;;;;;;;5.93;3.80;;;;;;;;;;6277658;28;20464;-79
2022/04/28 11:03:07;;;;;;;9.57;4.17;;;;;;;;;;6268391;28;20021;-79
2022/04/28 11:06:08;;;;;;;6.67;3.73;;;;;;;;;;6251690;28;20047;-79
2022/04/28 11:09:08;;;;;;;10.43;4.50;;;;;;;;;;6268879;28;20412;-80
2022/04/28 11:12:13;;;;;;;10.87;4.40;;;;;;;;;;6252657;28;20311;-79
2022/04/28 11:15:14;;;;;;;8.05;4.18;;;;;;;;;;6268294;28;20025;-79
2022/04/28 11:18:15;;;;;;;8.50;4.57;;;;;;;;;;6268955;28;20029;-79
2022/04/28 11:21:16;;;;;;;7.13;3.95;;;;;;;;;;6269174;28;20585;-79
2022/04/28 11:24:17;;;;;;;8.85;3.80;;;;;;;;;;6238914;28;20056;-79
2022/04/28 11:27:21;;;;;;;8.93;4.47;;;;;;;;;;6208296;28;20034;-79
2022/04/28 11:30:23;;;;;;;7.10;4.15;;;;;;;;;;6224004;28;20025;-79
2022/04/28 11:33:23;;;;;;;;;;;;;;;;;;6226308;28;20033;-79
2022/04/28 11:36:25;;;;;;;8.07;4.15;;;;;;;;;;6238087;28;19920;-79
2022/04/28 11:39:25;;;;;;;6.57;3.80;;;;;;;;;;6241126;28;20021;-79
2022/04/28 11:42:26;;;;;;;6.30;3.43;;;;;;;;;;6241158;28;20137;-79
2022/04/28 11:45:27;;;;;;;8.23;4.47;;;;;;;;;;6243641;28;20032;-80
2022/04/28 11:48:28;;;;;;;6.30;3.78;;;;;;;;;;6247112;28;20018;-79
2022/04/28 11:51:31;;;;;;;8.18;4.50;;;;;;;;;;6243643;28;20033;-79
2022/04/28 11:54:31;;;;;;;6.70;4.00;;;;;;;;;;6233480;28;20024;-79
2022/04/28 11:57:32;;;;;;;8.27;4.53;;;;;;;;;;6226068;28;20033;-80
2022/04/28 12:00:38;;;;;;;7.17;4.10;;;;;;;;;;6243564;28;20026;-79
2022/04/28 12:03:38;;;;;;;6.95;3.88;;;;;;;;;;6243640;28;20028;-79
2022/04/28 12:06:42;;;;;;;8.83;4.93;;;;;;;;;;6243707;28;20411;-80
2022/04/28 12:16:23;;;;;;;10.23;5.40;;;;;;;;;;6235640;28;20041;-79
2022/04/28 12:19:25;;;;;;;11.63;5.55;;;;;;;;;;6223336;28;20053;-80
2022/04/28 12:22:39;;;;;;;10.32;5.07;;;;;;;;;;6220402;28;20021;-79
2022/04/28 12:25:40;;;;;;;8.73;4.80;;;;;;;;;;6228559;28;20060;-80
2022/04/28 12:28:40;;;;;;;;;;;;;;;;;;6240083;28;20021;-80
2022/04/28 12:31:41;;;;;;;21.15;5.47;;;;;;;;;;6240003;28;19912;-80
2022/04/28 12:34:41;;;;;;;7.72;4.28;;;;;;;;;;6224020;28;20369;-80
2022/04/28 12:37:42;;;;;;;7.73;4.53;;;;;;;;;;6240618;28;20095;-80
2022/04/28 12:40:42;;;;;;;7.23;4.43;;;;;;;;;;6235839;28;20085;-80
2022/04/28 12:43:48;;;;;;;9.57;5.13;;;;;;;;;;6217502;28;20024;-80
2022/04/28 12:46:51;;;;;;;5.55;3.63;;;;;;;;;;6231404;28;20495;-80
2022/04/28 12:49:51;;;;;;;6.00;3.47;;;;;;;;;;6241126;28;20480;-80
2022/04/28 12:52:51;;;;;;;7.20;3.63;;;;;;;;;;6247320;28;20029;-80
2022/04/28 12:56:00;;;;;;;7.15;4.70;;;;;;;;;;6230181;28;20167;-80
2022/04/28 12:59:02;;;;;;;8.05;4.07;;;;;;;;;;6245992;28;20120;-80
2022/04/28 13:02:03;;;;;;;5.70;3.35;;;;;;;;;;6246493;28;20168;-80
2022/04/28 13:05:03;;;;;;;;;;;;;;;;;;6249138;28;20029;-80
2022/04/28 13:08:04;;;;;;;8.73;4.28;;;;;;;;;;6248104;28;19975;-80
2022/04/28 13:11:05;;;;;;;5.35;3.13;;;;;;;;;;6231161;28;20037;-80
2022/04/28 13:14:08;;;;;;;4.53;2.95;;;;;;;;;;6229611;28;20654;-80
2022/04/28 13:17:09;;;;;;;6.60;3.35;;;;;;;;;;6241933;28;20036;-80
2022/04/28 13:20:09;;;;;;;6.27;3.80;;;;;;;;;;6247577;28;20021;-80
2022/04/28 13:23:11;;;;;;;8.33;5.03;;;;;;;;;;6246787;28;20025;-80
2022/04/28 13:26:12;;;;;;;4.38;3.22;;;;;;;;;;6224810;28;20026;-80
2022/04/28 13:29:12;;;;;;;6.32;3.25;;;;;;;;;;6222901;28;20405;-80
2022/04/28 13:32:12;;;;;;;7.60;4.93;;;;;;;;;;6223058;28;20038;-80
2022/04/28 13:35:13;;;;;;;11.27;4.77;;;;;;;;;;6221251;28;20022;-80
2022/04/28 13:38:13;;;;;;;4.43;3.73;;;;;;;;;;6240360;28;20032;-80
2022/04/28 13:41:14;;;;;;;4.67;3.00;;;;;;;;;;6245831;28;20029;-80
2022/04/28 13:44:14;;;;;;;8.65;3.80;;;;;;;;;;6245773;28;20028;-80
2022/04/28 13:47:15;;;;;;;12.77;5.93;;;;;;;;;;6244605;28;20350;-79
2022/04/28 13:50:15;;;;;;;11.67;6.20;;;;;;;;;;6243912;28;20068;-80
2022/04/28 13:53:18;;;;;;;6.07;3.03;;;;;;;;;;6245661;28;20017;-79
2022/04/28 13:56:19;;;;;;;6.07;3.63;;;;;;;;;;6243339;28;20461;-79
2022/04/28 13:59:19;;;;;;;10.27;5.13;;;;;;;;;;6244634;28;20018;-79
2022/04/28 14:02:19;;;;;;;5.50;3.70;;;;;;;;;;6223574;28;20563;-79
2022/04/28 14:05:20;;;;;;;5.87;3.90;;;;;;;;;;6213433;28;20021;-79
2022/04/28 14:08:20;;;;;;;6.80;3.80;;;;;;;;;;6234019;28;20500;-79
2022/04/28 14:11:21;;;;;;;7.97;4.20;;;;;;;;;;6230949;28;20137;-79
2022/04/28 14:14:22;;;;;;;7.40;4.30;;;;;;;;;;6243786;28;20017;-79
2022/04/28 14:17:22;;;;;;;5.07;2.78;;;;;;;;;;6243343;28;20094;-79
2022/04/28 14:20:22;;;;;;;5.63;3.60;;;;;;;;;;6245095;28;20040;-79
2022/04/28 14:23:23;;;;;;;3.97;3.10;;;;;;;;;;6227514;28;20095;-79
2022/04/28 14:26:23;;;;;;;6.53;3.80;;;;;;;;;;6220309;28;20382;-79
2022/04/28 14:29:23;;;;;;;6.03;2.97;;;;;;;;;;6232155;28;20013;-79
2022/04/28 14:32:23;;;;;;;7.83;3.83;;;;;;;;;;6229540;28;20025;-79
2022/04/28 14:35:24;;;;;;;8.17;2.93;;;;;;;;;;6241350;28;20062;-80
2022/04/28 14:38:24;;;;;;;8.33;4.60;;;;;;;;;;6245348;28;20288;-79
2022/04/28 14:41:24;;;;;;;7.47;4.40;;;;;;;;;;6238199;28;20076;-79
2022/04/28 14:44:25;;;;;;;9.87;4.20;;;;;;;;;;6242442;28;20025;-79
2022/04/28 14:47:25;;;;;;;5.93;3.80;;;;;;;;;;6244762;28;20132;-79
2022/04/28 14:53:44;;;;;;;6.07;3.25;;;;;;;;;;6241610;28;20026;-80
2022/04/28 14:56:44;;;;;;;8.57;4.10;;;;;;;;;;6218463;28;20029;-80
2022/04/28 14:59:44;;;;;;;5.90;3.43;;;;;;;;;;6221288;28;20732;-79
2022/04/28 15:02:45;;;;;;;6.20;2.80;;;;;;;;;;6233315;28;20538;-79
2022/04/28 15:05:46;;;;;;;8.80;4.60;;;;;;;;;;6226195;28;20033;-80
2022/04/28 15:08:46;;;;;;;6.87;4.50;;;;;;;;;;6225136;28;20103;-80
2022/04/28 15:11:46;;;;;;;15.57;4.30;;;;;;;;;;6218926;28;20041;-80
2022/04/28 15:14:47;;;;;;;7.40;3.37;;;;;;;;;;6231093;28;20005;-80
2022/04/28 15:17:47;;;;;;;5.77;2.80;;;;;;;;;;6237302;28;20019;-80
2022/04/28 15:20:47;;;;;;;7.90;3.00;;;;;;;;;;6229047;28;20461;-80
2022/04/28 15:23:47;;;;;;;5.93;2.60;;;;;;;;;;6210313;28;20045;-80
2022/04/28 15:26:48;;;;;;;5.67;2.70;;;;;;;;;;6236354;28;20021;-80
2022/04/28 15:29:48;;;;;;;5.07;2.43;;;;;;;;;;6236018;28;20120;-80
2022/04/28 15:32:49;;;;;;;11.53;6.73;;;;;;;;;;6240725;28;20013;-80
2022/04/28 15:35:51;;;;;;;6.60;3.80;;;;;;;;;;6244085;28;20017;-79
2022/04/28 15:38:52;;;;;;;9.90;7.72;;;;;;;;;;6218421;28;20555;-80
2022/04/28 15:41:54;;;;;;;7.00;3.33;;;;;;;;;;6241912;28;20028;-80
2022/04/28 15:44:54;;;;;;;3.95;2.80;;;;;;;;;;6201421;28;20030;-79
2022/04/28 15:47:54;;;;;;;4.40;2.67;;;;;;;;;;6250693;28;20500;-80
2022/04/28 15:50:54;;;;;;;4.60;2.90;;;;;;;;;;6242333;28;20100;-80
2022/04/28 15:53:55;;;;;;;3.67;2.53;;;;;;;;;;6241870;28;20482;-80
2022/04/28 15:56:55;;;;;;;9.63;6.30;;;;;;;;;;6241846;28;20495;-80
2022/04/28 15:59:55;;;;;;;10.60;8.13;;;;;;;;;;6242595;28;20104;-80
2022/04/28 16:02:56;;;;;;;10.47;4.80;;;;;;;;;;6241770;28;20132;-80
2022/04/28 16:05:56;;;;;;;11.87;6.10;;;;;;;;;;6241455;28;20097;-80
2022/04/28 16:08:56;;;;;;;3.47;2.50;;;;;;;;;;6223412;28;20025;-80
2022/04/28 16:11:56;;;;;;;5.43;3.90;;;;;;;;;;6242181;28;20018;-80
2022/04/28 16:14:57;;;;;;;4.07;2.13;;;;;;;;;;6240986;28;20398;-79
2022/04/28 16:17:57;;;;;;;3.23;2.50;;;;;;;;;;6241507;28;20021;-80
2022/04/28 16:20:57;;;;;;;2.93;2.10;;;;;;;;;;6230781;28;20018;-79
2022/04/28 16:23:58;;;;;;;5.67;3.17;;;;;;;;;;6247178;28;20440;-79
2022/04/28 16:26:58;;;;;;;2.70;2.10;;;;;;;;;;6248051;28;20096;-80
2022/04/28 16:29:58;;;;;;;6.60;3.27;;;;;;;;;;6229289;28;20507;-80
2022/04/28 16:32:59;;;;;;;4.13;2.17;;;;;;;;;;6250169;28;20476;-80
2022/04/28 16:36:00;;;;;;;6.60;3.33;;;;;;;;;;6232626;28;20017;-80
2022/04/28 16:39:00;;;;;;;6.10;3.43;;;;;;;;;;6232129;28;20472;-80
2022/04/28 16:42:02;;;;;;;7.37;3.77;;;;;;;;;;6247454;28;20350;-80
2022/04/28 16:45:02;;;;;;;4.35;2.95;;;;;;;;;;6230345;28;20022;-80
2022/04/28 16:48:02;;;;;;;9.93;3.20;;;;;;;;;;6225403;28;20105;-80
2022/04/28 16:51:04;;;;;;;8.23;3.40;;;;;;;;;;6224304;28;20022;-80
2022/04/28 16:54:04;;;;;;;6.15;4.15;;;;;;;;;;6233346;28;20026;-80
2022/04/28 16:57:05;;;;;;;11.00;3.77;;;;;;;;;;6249520;28;20388;-80
2022/04/28 17:00:06;;;;;;;6.73;3.57;;;;;;;;;;6251180;28;20021;-80
2022/04/28 17:06:25;;;;;;;7.93;3.00;;;;;;;;;;6237645;28;20033;-80
2022/04/28 17:09:26;;;;;;;7.80;3.83;;;;;;;;;;6232020;28;20519;-80
2022/04/28 17:12:26;;;;;;;6.27;3.90;;;;;;;;;;6250633;28;20025;-79
2022/04/28 17:15:27;;;;;;;8.20;3.53;;;;;;;;;;6249466;28;20006;-79
2022/04/28 17:18:27;;;;;;;9.63;4.70;;;;;;;;;;6234849;28;20025;-80
2022/04/28 17:21:27;;;;;;;10.20;5.77;;;;;;;;;;6253627;28;20550;-79
2022/04/28 17:24:29;;;;;;;9.73;5.60;;;;;;;;;;6249406;28;20029;-79
2022/04/28 17:27:31;;;;;;;8.73;3.83;;;;;;;;;;6247526;28;20022;-80
2022/04/28 17:30:32;;;;;;;10.25;5.25;;;;;;;;;;6242042;28;20444;-80
2022/04/28 17:33:32;;;;;;;13.93;5.23;;;;;;;;;;6247053;28;20022;-79
2022/04/28 17:36:32;;;;;;;13.70;6.13;;;;;;;;;;6247374;28;20060;-79
2022/04/28 17:39:34;;;;;;;14.30;8.07;;;;;;;;;;6228423;28;20028;-79
2022/04/28 17:42:34;;;;;;;33.33;15.02;;;;;;;;;;6244229;28;20034;-79
2022/04/28 17:45:35;;;;;;;19.67;11.68;;;;;;;;;;6247692;28;20075;-79
2022/04/28 17:48:35;;;;;;;31.50;15.30;;;;;;;;;;6247095;28;20045;-79
2022/04/28 17:51:35;;;;;;;11.47;7.20;;;;;;;;;;6247748;28;20435;-79
2022/04/28 17:54:37;;;;;;;10.50;6.13;;;;;;;;;;6231772;28;20059;-79
2022/04/28 18:00:56;;;;;;;10.63;5.60;;;;;;;;;;6247001;28;20038;-79
2022/04/28 18:03:57;;;;;;;12.95;6.78;;;;;;;;;;6244325;28;20396;-79
2022/04/28 18:06:57;;;;;;;14.57;7.75;;;;;;;;;;6227103;28;20436;-79
2022/04/28 18:09:57;;;;;;;16.73;7.03;;;;;;;;;;6242976;28;20045;-80
2022/04/28 18:12:58;;;;;;;11.27;5.90;;;;;;;;;;6244616;28;20299;-79
2022/04/28 18:15:58;;;;;;;12.50;6.50;;;;;;;;;;6238339;28;20256;-80
2022/04/28 18:18:58;;;;;;;26.13;12.55;;;;;;;;;;6232588;28;20391;-80
2022/04/28 18:21:58;;;;;;;30.83;12.40;;;;;;;;;;6269291;28;20109;-79
2022/04/28 18:24:59;;;;;;;16.10;10.55;;;;;;;;;;6239169;28;20022;-79
2022/04/28 18:28:02;;;;;;;16.27;8.87;;;;;;;;;;6225995;28;20044;-79
2022/04/28 18:31:03;;;;;;;32.65;18.27;;;;;;;;;;6243910;28;20817;-80
2022/04/28 18:34:03;;;;;;;34.03;19.00;;;;;;;;;;6244215;28;20025;-80
2022/04/28 18:47:01;;;;;;;34.58;17.55;;;;;;;;;;6245544;28;20038;-79
2022/04/28 18:50:01;;;;;;;45.60;20.10;;;;;;;;;;6245196;28;20025;-80
2022/04/28 18:53:03;;;;;;;45.30;26.30;;;;;;;;;;6243845;28;20435;-79